• Join FlightAware (Why Join?)
  • Login
  • US Flag 
04:11AM EST


 

Airport Tracker/Info


-or-


 

Live Flight TrackerFlight Track Log ✈ CSZ9721 ✈ 07-Sep-2013 ✈ ZGSZ / SZX - ZSJD / JDZ

Flight Track Log - Related Links

Times and Time Zones

All times are in EDT time to prevent confusion due to time zone crossing. See the CSZ9721 flight status page for this flight to view local times or setup timezone preferences in your user account.

Time Position Orientation Groundspeed Altitude Reporting Facility
EDT Latitude Longitude Course Direction KTS MPH feet Rate Location/Type
06:54AM 23.2002 114.0787 24° Northeast  Level Estimated
06:55AM 23.2936 114.1233 24° Northeast  Level Estimated
06:56AM 23.3871 114.1679 24° Northeast  Level Estimated
06:57AM 23.4804 114.2126 24° Northeast  Level Estimated
06:58AM 23.5738 114.2574 24° Northeast  Level Estimated
06:59AM 23.6672 114.3023 24° Northeast  Level Estimated
07:00AM 23.7605 114.3472 24° Northeast  Level Estimated
07:01AM 23.8539 114.3922 24° Northeast  Level Estimated
07:02AM 23.9472 114.4372 24° Northeast  Level Estimated
07:03AM 24.0405 114.4823 24° Northeast  Level Estimated
07:04AM 24.1338 114.5275 24° Northeast  Level Estimated
07:05AM 24.2271 114.5727 24° Northeast  Level Estimated
07:06AM 24.3204 114.6180 24° Northeast  Level Estimated
07:07AM 24.4136 114.6634 24° Northeast  Level Estimated
07:08AM 24.5069 114.7088 24° Northeast  Level Estimated
07:09AM 24.6001 114.7543 24° Northeast  Level Estimated
07:10AM 24.6933 114.7999 24° Northeast  Level Estimated
07:11AM 24.7866 114.8455 24° Northeast  Level Estimated
07:12AM 24.8797 114.8912 24° Northeast  Level Estimated
07:13AM 24.9729 114.9370 24° Northeast  Level Estimated
07:14AM 25.0661 114.9829 24° Northeast  Level Estimated
07:15AM 25.1592 115.0288 24° Northeast  Level Estimated
07:16AM 25.2524 115.0748 24° Northeast  Level Estimated
07:17AM 25.3455 115.1208 24° Northeast  Level Estimated
07:18AM 25.4386 115.1670 24° Northeast  Level Estimated
07:19AM 25.5317 115.2132 24° Northeast  Level Estimated
07:20AM 25.6248 115.2594 24° Northeast  Level Estimated
07:21AM 25.7178 115.3058 24° Northeast  Level Estimated
07:22AM 25.8109 115.3522 24° Northeast  Level Estimated
07:23AM 25.9039 115.3987 24° Northeast  Level Estimated
07:24AM 25.9969 115.4452 24° Northeast  Level Estimated
07:25AM 26.0899 115.4919 24° Northeast  Level Estimated
07:26AM 26.1829 115.5386 24° Northeast  Level Estimated
07:27AM 26.2759 115.5854 24° Northeast  Level Estimated
07:28AM 26.3689 115.6322 24° Northeast  Level Estimated
07:29AM 26.4618 115.6792 24° Northeast  Level Estimated
07:30AM 26.5547 115.7262 24° Northeast  Level Estimated
07:31AM 26.6476 115.7732 24° Northeast  Level Estimated
07:32AM 26.7405 115.8204 24° Northeast  Level Estimated
07:33AM 26.8334 115.8677 24° Northeast  Level Estimated
07:34AM 26.9263 115.9150 24° Northeast  Level Estimated
07:35AM 27.0191 115.9624 24° Northeast  Level Estimated
07:36AM 27.1120 116.0098 24° Northeast  Level Estimated
07:37AM 27.2048 116.0574 24° Northeast  Level Estimated
07:38AM 27.2976 116.1050 25° Northeast  Level Estimated
07:39AM 27.3904 116.1527 25° Northeast  Level Estimated
07:40AM 27.4831 116.2005 25° Northeast  Level Estimated
07:41AM 27.5759 116.2484 25° Northeast  Level Estimated
07:42AM 27.6686 116.2963 25° Northeast  Level Estimated
07:43AM 27.7614 116.3444 25° Northeast  Level Estimated
07:44AM 27.8540 116.3925 25° Northeast  Level Estimated
07:45AM 27.9467 116.4407 25° Northeast  Level Estimated
07:46AM 28.0394 116.4890 25° Northeast  Level Estimated
07:47AM 28.1321 116.5374 25° Northeast  Level Estimated
07:48AM 28.2247 116.5858 25° Northeast  Level Estimated
07:49AM 28.3173 116.6343 25° Northeast  Level Estimated
07:50AM 28.4099 116.6830 25° Northeast  Level Estimated
07:51AM 28.5025 116.7317 25° Northeast  Level Estimated
07:52AM 28.5951 116.7804 25° Northeast  Level Estimated
07:53AM 28.6876 116.8293 25° Northeast  Level Estimated
07:54AM 28.7801 116.8783 25° Northeast  Level Estimated
07:55AM 28.8727 116.9273 25° Northeast  Level Estimated
07:56AM 28.9652 116.9765 25° Northeast  Level Estimated
07:57AM 29.0576 117.0257 25° Northeast  Level Estimated
07:58AM 29.1501 117.0750 25° Northeast  Level Estimated
07:59AM 29.2425 117.1244 25° Northeast  Level Estimated
08:00AM 29.3350 117.1739 25° Northeast  Level Estimated
08:01AM 29.3386 117.1758 25° Northeast  Level Estimated
08:02AM 29.3386 117.1758 69° East  Level Estimated
08:03AM 29.3386 117.1758 69° East  Level Estimated
08:04AM 29.3386 117.1758 69° East  Level Estimated
08:05AM 29.3386 117.1758 69° East  Level Estimated
08:06AM 29.3386 117.1758 69° East  Level Estimated
08:07AM 29.3386 117.1758 69° East  Level Estimated
08:08AM 29.3386 117.1758 69° East  Level Estimated
08:09AM 29.3386 117.1758 69° East  Level Estimated
08:10AM 29.3386 117.1758 69° East  Level Estimated
08:11AM 29.3386 117.1758 69° East  Level Estimated
08:12AM 29.3386 117.1758 69° East  Level Estimated
08:13AM 29.3386 117.1758 69° East  Level Estimated
08:14AM 29.3386 117.1758 69° East  Level Estimated
08:15AM 29.3386 117.1758 69° East  Level Estimated
08:16AM 29.3386 117.1758 69° East  Level Estimated